createdAt,value
2017-10-27T00:01:42.060Z,35.67
2017-10-27T00:04:09.616Z,30.63
2017-10-27T00:06:37.779Z,40.43
2017-10-27T00:09:05.536Z,36.10
2017-10-27T00:11:33.060Z,36.30
2017-10-27T00:14:00.621Z,34.03
2017-10-27T00:16:28.155Z,37.63
2017-10-27T00:18:56.474Z,33.77
2017-10-27T00:21:23.992Z,39.43
2017-10-27T00:23:52.266Z,36.03
2017-10-27T00:26:20.581Z,32.53
2017-10-27T00:28:48.108Z,31.37
2017-10-27T00:31:16.875Z,35.90
2017-10-27T00:33:45.209Z,32.17
2017-10-27T00:36:12.729Z,36.37
2017-10-27T00:38:41.012Z,44.60
2017-10-27T00:41:09.629Z,39.20
2017-10-27T00:43:38.008Z,36.33
2017-10-27T00:46:05.525Z,39.07
2017-10-27T00:48:33.844Z,41.30
2017-10-27T00:51:01.361Z,46.50
2017-10-27T00:53:29.646Z,46.70
2017-10-27T00:55:57.968Z,52.53
2017-10-27T00:58:25.517Z,48.07
2017-10-27T01:00:53.039Z,52.77
2017-10-27T01:03:21.345Z,62.43
2017-10-27T01:05:48.871Z,61.13
2017-10-27T01:08:17.380Z,54.13
2017-10-27T01:10:44.948Z,59.67
2017-10-27T01:13:12.512Z,58.93
2017-10-27T01:15:40.032Z,70.27
2017-10-27T01:18:08.317Z,64.37
2017-10-27T01:20:35.879Z,57.53
2017-10-27T01:23:04.144Z,66.83
2017-10-27T01:25:32.429Z,58.40
2017-10-27T01:28:00.734Z,65.77
2017-10-27T01:30:28.237Z,65.27
2017-10-27T01:32:55.783Z,61.40
2017-10-27T01:35:23.314Z,54.03
2017-10-27T01:37:51.591Z,60.87
2017-10-27T01:40:19.149Z,52.97
2017-10-27T01:42:47.432Z,54.37
2017-10-27T01:45:15.189Z,59.47
2017-10-27T01:47:42.709Z,56.23
2017-10-27T01:50:10.999Z,54.83
2017-10-27T01:52:38.585Z,61.63
2017-10-27T01:55:06.147Z,51.80
2017-10-27T01:57:33.663Z,54.63
2017-10-27T02:00:01.962Z,51.57
2017-10-27T02:02:29.516Z,59.87
2017-10-27T02:04:57.038Z,55.50
2017-10-27T02:07:24.805Z,53.93
2017-10-27T02:09:52.363Z,51.00
2017-10-27T02:12:19.877Z,51.80
2017-10-27T02:14:47.405Z,62.93
2017-10-27T02:17:15.685Z,49.77
2017-10-27T02:19:43.958Z,45.53
2017-10-27T02:22:12.237Z,48.43
2017-10-27T02:24:40.624Z,51.63
2017-10-27T02:27:08.893Z,50.40
2017-10-27T02:29:37.180Z,51.13
2017-10-27T02:32:04.715Z,50.90
2017-10-27T02:34:33.601Z,50.20
2017-10-27T02:37:01.123Z,52.50
2017-10-27T02:39:29.411Z,46.80
2017-10-27T02:41:56.991Z,43.43
2017-10-27T02:44:24.505Z,45.37
2017-10-27T02:46:52.024Z,52.80
2017-10-27T02:49:20.678Z,45.30
2017-10-27T02:51:48.192Z,43.90
2017-10-27T02:54:15.780Z,41.43
2017-10-27T02:56:43.299Z,45.47
2017-10-27T02:59:11.985Z,43.23
2017-10-27T03:01:40.332Z,41.07
2017-10-27T03:04:08.493Z,50.30
2017-10-27T03:06:36.913Z,47.90
2017-10-27T03:09:05.214Z,46.57
2017-10-27T03:11:32.729Z,45.80
2017-10-27T03:14:00.252Z,41.80
2017-10-27T03:16:27.807Z,44.33
2017-10-27T03:18:55.505Z,46.70
2017-10-27T03:21:23.788Z,56.83
2017-10-27T03:23:51.325Z,49.77
2017-10-27T03:26:18.828Z,48.77
2017-10-27T03:28:46.333Z,44.93
2017-10-27T03:31:13.903Z,46.83
2017-10-27T03:33:42.015Z,40.73
2017-10-27T03:36:10.285Z,45.33
2017-10-27T03:38:38.567Z,46.53
2017-10-27T03:41:06.369Z,49.63
2017-10-27T03:43:34.056Z,44.37
2017-10-27T03:46:01.587Z,41.33
2017-10-27T03:48:29.657Z,42.20
2017-10-27T03:50:57.468Z,47.57
2017-10-27T03:53:24.999Z,44.20
2017-10-27T03:55:53.202Z,42.80
2017-10-27T03:58:20.970Z,49.83
2017-10-27T04:00:48.525Z,51.70
2017-10-27T04:03:16.816Z,43.20
2017-10-27T04:05:44.369Z,46.67
2017-10-27T04:08:11.907Z,44.77
2017-10-27T04:10:40.150Z,42.97
2017-10-27T04:13:08.427Z,41.00
2017-10-27T04:15:35.960Z,46.50
2017-10-27T04:18:03.460Z,42.73
2017-10-27T04:20:30.975Z,43.23
2017-10-27T04:22:58.536Z,36.07
2017-10-27T04:25:26.040Z,37.03
2017-10-27T04:27:54.218Z,47.57
2017-10-27T04:30:22.709Z,30.90
2017-10-27T04:32:50.256Z,32.70
2017-10-27T04:35:17.768Z,32.10
2017-10-27T04:37:45.285Z,30.67
2017-10-27T04:40:12.793Z,41.00
2017-10-27T04:42:41.056Z,30.70
2017-10-27T04:45:09.380Z,35.03
2017-10-27T04:47:36.861Z,44.80
2017-10-27T04:50:04.388Z,40.77
2017-10-27T04:52:32.714Z,31.03
2017-10-27T04:55:01.007Z,30.47
2017-10-27T04:57:29.272Z,37.50
2017-10-27T04:59:57.557Z,26.47
2017-10-27T05:02:26.684Z,28.97
2017-10-27T05:04:54.320Z,28.27
2017-10-27T05:07:21.887Z,33.20
2017-10-27T05:09:49.424Z,35.53
2017-10-27T05:12:17.748Z,34.00
2017-10-27T05:14:45.273Z,25.00
2017-10-27T05:17:18.534Z,25.97
2017-10-27T05:19:51.734Z,23.20
2017-10-27T05:22:24.903Z,26.70
2017-10-27T05:24:52.435Z,34.50
2017-10-27T05:27:20.716Z,26.77
2017-10-27T05:29:48.229Z,26.10
2017-10-27T05:32:16.654Z,23.43
2017-10-27T05:34:44.185Z,25.80
2017-10-27T05:37:11.768Z,19.73
2017-10-27T05:39:39.305Z,16.87
2017-10-27T05:42:07.582Z,21.00
2017-10-27T05:44:35.958Z,20.10
2017-10-27T05:47:04.560Z,18.13
2017-10-27T05:49:32.051Z,16.73
2017-10-27T05:52:00.271Z,19.97
2017-10-27T05:54:27.873Z,20.80
2017-10-27T05:56:55.392Z,13.70
2017-10-27T05:59:23.655Z,17.57
2017-10-27T06:01:52.629Z,20.27
2017-10-27T06:04:20.336Z,16.70
2017-10-27T06:06:47.857Z,15.23
2017-10-27T06:09:15.379Z,13.97
2017-10-27T06:11:42.901Z,18.00
2017-10-27T06:14:11.188Z,11.80
2017-10-27T06:16:38.707Z,15.43
2017-10-27T06:19:06.209Z,12.27
2017-10-27T06:21:33.737Z,14.80
2017-10-27T06:24:01.251Z,14.13
2017-10-27T06:26:28.757Z,11.13
2017-10-27T06:28:57.050Z,12.33
2017-10-27T06:31:24.563Z,8.60
2017-10-27T06:33:52.067Z,8.97
2017-10-27T06:36:20.367Z,15.50
2017-10-27T06:38:47.882Z,11.63
2017-10-27T06:41:16.236Z,13.13
2017-10-27T06:43:43.785Z,9.87
2017-10-27T06:46:11.283Z,10.30
2017-10-27T06:48:39.068Z,6.07
2017-10-27T06:51:06.625Z,11.60
2017-10-27T06:53:34.933Z,14.80
2017-10-27T06:56:02.444Z,8.90
2017-10-27T06:58:30.221Z,6.90
2017-10-27T07:00:57.732Z,6.90
2017-10-27T07:03:25.260Z,9.20
2017-10-27T07:05:52.808Z,8.20
2017-10-27T07:08:20.332Z,8.73
2017-10-27T07:10:47.872Z,7.07
2017-10-27T07:13:15.467Z,10.60
2017-10-27T07:15:43.721Z,7.97
2017-10-27T07:18:11.340Z,9.20
2017-10-27T07:20:38.899Z,8.30
2017-10-27T07:23:06.644Z,15.40
2017-10-27T07:25:34.220Z,6.20
2017-10-27T07:28:02.467Z,11.53
2017-10-27T07:30:29.973Z,7.43
2017-10-27T07:32:57.487Z,9.73
2017-10-27T07:35:25.801Z,11.63
2017-10-27T07:37:54.872Z,9.03
2017-10-27T07:40:22.396Z,12.10
2017-10-27T07:42:50.044Z,9.93
2017-10-27T07:45:17.553Z,13.13
2017-10-27T07:47:45.063Z,16.33
2017-10-27T07:50:12.607Z,6.60
2017-10-27T07:52:40.116Z,9.80
2017-10-27T07:55:07.633Z,6.63
2017-10-27T07:57:36.181Z,8.40
2017-10-27T08:00:03.718Z,13.40
2017-10-27T08:02:31.281Z,12.07
2017-10-27T08:04:58.821Z,8.03
2017-10-27T08:07:27.449Z,6.40
2017-10-27T08:09:54.972Z,6.63
2017-10-27T08:12:23.262Z,10.50
2017-10-27T08:14:50.775Z,19.93
2017-10-27T08:17:18.293Z,5.43
2017-10-27T08:19:45.856Z,9.87
2017-10-27T08:22:13.419Z,13.60
2017-10-27T08:24:40.983Z,8.50
2017-10-27T08:27:08.536Z,4.53
2017-10-27T08:29:36.037Z,9.07
2017-10-27T08:32:03.537Z,6.33
2017-10-27T08:34:31.080Z,4.90
2017-10-27T08:36:59.359Z,8.50
2017-10-27T08:39:27.635Z,6.93
2017-10-27T08:41:55.925Z,7.83
2017-10-27T08:44:24.133Z,6.20
2017-10-27T08:46:51.985Z,4.47
2017-10-27T08:49:19.529Z,8.57
2017-10-27T08:51:47.057Z,8.65
2017-10-27T08:54:15.351Z,7.03
2017-10-27T08:56:42.874Z,9.43
2017-10-27T08:59:10.409Z,10.27
2017-10-27T09:01:38.217Z,6.32
2017-10-27T09:04:05.982Z,7.53
2017-10-27T09:06:34.269Z,4.72
2017-10-27T09:09:02.939Z,4.82
2017-10-27T09:11:30.884Z,7.10
2017-10-27T09:13:59.251Z,6.62
2017-10-27T09:16:26.757Z,7.97
2017-10-27T09:18:55.073Z,6.28
2017-10-27T09:21:22.584Z,7.18
2017-10-27T09:23:50.870Z,6.55
2017-10-27T09:26:19.549Z,6.85
2017-10-27T09:28:47.839Z,5.90
2017-10-27T09:31:16.101Z,7.73
2017-10-27T09:33:44.409Z,9.20
2017-10-27T09:36:11.904Z,6.73
2017-10-27T09:38:39.401Z,8.53
2017-10-27T09:41:08.312Z,8.00
2017-10-27T09:43:35.947Z,10.73
2017-10-27T09:46:04.215Z,10.33
2017-10-27T09:48:31.744Z,6.50
2017-10-27T09:50:59.280Z,8.13
2017-10-27T09:53:26.809Z,4.35
2017-10-27T09:55:55.093Z,6.12
2017-10-27T09:58:23.209Z,7.37
2017-10-27T10:00:50.729Z,6.50
2017-10-27T10:03:19.333Z,7.82
2017-10-27T10:05:46.840Z,4.93
2017-10-27T10:08:15.167Z,7.47
2017-10-27T10:10:43.138Z,8.80
2017-10-27T10:13:10.671Z,6.90
2017-10-27T10:15:38.359Z,5.25
2017-10-27T10:18:06.068Z,7.32
2017-10-27T10:20:34.092Z,5.60
2017-10-27T10:23:01.878Z,8.32
2017-10-27T10:25:29.589Z,7.80
2017-10-27T10:27:57.162Z,9.13
2017-10-27T10:30:24.672Z,7.73
2017-10-27T10:32:52.215Z,2.83
2017-10-27T10:35:19.718Z,6.77
2017-10-27T10:37:47.959Z,7.17
2017-10-27T10:40:16.006Z,6.00
2017-10-27T10:42:43.523Z,5.97
2017-10-27T10:45:11.043Z,5.32
2017-10-27T10:47:38.923Z,7.67
2017-10-27T10:50:06.701Z,6.03
2017-10-27T10:52:34.241Z,10.17
2017-10-27T10:55:02.243Z,8.53
2017-10-27T10:57:30.594Z,5.50
2017-10-27T10:59:58.548Z,7.17
2017-10-27T11:02:27.421Z,5.73
2017-10-27T11:04:55.866Z,6.20
2017-10-27T11:07:24.280Z,6.35
2017-10-27T11:09:52.128Z,6.53
2017-10-27T11:12:20.004Z,4.93
